sensor_id;sensor_type;location;lat;lon;timestamp;P1;durP1;ratioP1;P2;durP2;ratioP2
25155;SDS011;71253;51.496;7.606;2024-03-25T00:03:39;55.78;;;10.75;;
25155;SDS011;71253;51.496;7.606;2024-03-25T00:08:40;58.33;;;10.30;;
25155;SDS011;71253;51.496;7.606;2024-03-25T00:13:40;53.35;;;10.07;;
25155;SDS011;71253;51.496;7.606;2024-03-25T00:18:41;49.45;;;10.30;;
25155;SDS011;71253;51.496;7.606;2024-03-25T00:23:41;50.80;;;9.23;;
25155;SDS011;71253;51.496;7.606;2024-03-25T00:28:42;52.30;;;10.48;;
25155;SDS011;71253;51.496;7.606;2024-03-25T00:33:43;59.92;;;10.07;;
25155;SDS011;71253;51.496;7.606;2024-03-25T00:38:43;52.90;;;8.80;;
25155;SDS011;71253;51.496;7.606;2024-03-25T00:43:44;43.85;;;9.88;;
25155;SDS011;71253;51.496;7.606;2024-03-25T00:48:45;42.30;;;9.77;;
25155;SDS011;71253;51.496;7.606;2024-03-25T00:53:45;52.60;;;11.02;;
25155;SDS011;71253;51.496;7.606;2024-03-25T00:58:46;64.13;;;12.25;;
25155;SDS011;71253;51.496;7.606;2024-03-25T01:03:46;68.85;;;14.60;;
25155;SDS011;71253;51.496;7.606;2024-03-25T01:08:47;61.20;;;15.25;;
25155;SDS011;71253;51.496;7.606;2024-03-25T01:13:48;79.32;;;17.35;;
25155;SDS011;71253;51.496;7.606;2024-03-25T01:18:49;76.55;;;18.48;;
25155;SDS011;71253;51.496;7.606;2024-03-25T01:23:49;71.65;;;18.40;;
25155;SDS011;71253;51.496;7.606;2024-03-25T01:28:50;83.05;;;18.52;;
25155;SDS011;71253;51.496;7.606;2024-03-25T01:33:51;63.00;;;17.98;;
25155;SDS011;71253;51.496;7.606;2024-03-25T01:38:51;71.88;;;17.98;;
25155;SDS011;71253;51.496;7.606;2024-03-25T01:43:52;67.65;;;16.50;;
25155;SDS011;71253;51.496;7.606;2024-03-25T01:48:52;83.60;;;17.08;;
25155;SDS011;71253;51.496;7.606;2024-03-25T01:53:54;79.15;;;17.38;;
25155;SDS011;71253;51.496;7.606;2024-03-25T01:58:56;100.25;;;21.02;;
25155;SDS011;71253;51.496;7.606;2024-03-25T02:03:57;87.13;;;22.35;;
25155;SDS011;71253;51.496;7.606;2024-03-25T02:08:57;95.50;;;24.25;;
25155;SDS011;71253;51.496;7.606;2024-03-25T02:13:59;106.28;;;25.67;;
25155;SDS011;71253;51.496;7.606;2024-03-25T02:18:59;110.97;;;28.73;;
25155;SDS011;71253;51.496;7.606;2024-03-25T02:24:00;95.68;;;25.42;;
25155;SDS011;71253;51.496;7.606;2024-03-25T02:29:08;112.25;;;25.33;;
25155;SDS011;71253;51.496;7.606;2024-03-25T02:34:09;69.47;;;18.58;;
25155;SDS011;71253;51.496;7.606;2024-03-25T02:39:10;63.65;;;18.50;;
25155;SDS011;71253;51.496;7.606;2024-03-25T02:44:10;57.50;;;15.93;;
25155;SDS011;71253;51.496;7.606;2024-03-25T02:49:11;52.53;;;16.42;;
25155;SDS011;71253;51.496;7.606;2024-03-25T02:54:12;78.78;;;23.65;;
25155;SDS011;71253;51.496;7.606;2024-03-25T02:59:13;94.60;;;26.85;;
25155;SDS011;71253;51.496;7.606;2024-03-25T03:04:13;108.90;;;27.23;;
25155;SDS011;71253;51.496;7.606;2024-03-25T03:09:14;120.53;;;26.35;;
25155;SDS011;71253;51.496;7.606;2024-03-25T03:14:15;106.60;;;26.55;;
25155;SDS011;71253;51.496;7.606;2024-03-25T03:19:15;129.90;;;27.42;;
25155;SDS011;71253;51.496;7.606;2024-03-25T03:24:16;120.97;;;27.20;;
25155;SDS011;71253;51.496;7.606;2024-03-25T03:29:16;110.13;;;26.40;;
25155;SDS011;71253;51.496;7.606;2024-03-25T03:34:17;107.95;;;24.63;;
25155;SDS011;71253;51.496;7.606;2024-03-25T03:39:17;109.57;;;25.30;;
25155;SDS011;71253;51.496;7.606;2024-03-25T03:44:18;103.07;;;23.38;;
25155;SDS011;71253;51.496;7.606;2024-03-25T03:49:19;93.88;;;21.08;;
25155;SDS011;71253;51.496;7.606;2024-03-25T03:54:19;94.68;;;23.13;;
25155;SDS011;71253;51.496;7.606;2024-03-25T03:59:20;108.85;;;24.45;;
25155;SDS011;71253;51.496;7.606;2024-03-25T04:04:21;98.10;;;26.13;;
25155;SDS011;71253;51.496;7.606;2024-03-25T04:09:21;119.20;;;28.67;;
25155;SDS011;71253;51.496;7.606;2024-03-25T04:14:22;107.35;;;28.17;;
25155;SDS011;71253;51.496;7.606;2024-03-25T04:19:26;112.78;;;30.15;;
25155;SDS011;71253;51.496;7.606;2024-03-25T04:24:26;124.15;;;29.98;;
25155;SDS011;71253;51.496;7.606;2024-03-25T04:29:27;128.63;;;31.98;;
25155;SDS011;71253;51.496;7.606;2024-03-25T04:34:28;111.53;;;31.38;;
25155;SDS011;71253;51.496;7.606;2024-03-25T04:39:29;115.45;;;30.77;;
25155;SDS011;71253;51.496;7.606;2024-03-25T04:44:30;99.68;;;30.75;;
25155;SDS011;71253;51.496;7.606;2024-03-25T04:49:30;109.88;;;29.27;;
25155;SDS011;71253;51.496;7.606;2024-03-25T04:54:31;108.00;;;28.23;;
25155;SDS011;71253;51.496;7.606;2024-03-25T04:59:32;103.63;;;28.20;;
25155;SDS011;71253;51.496;7.606;2024-03-25T05:04:32;117.43;;;27.48;;
25155;SDS011;71253;51.496;7.606;2024-03-25T05:09:33;114.05;;;27.63;;
25155;SDS011;71253;51.496;7.606;2024-03-25T05:14:34;117.07;;;27.45;;
25155;SDS011;71253;51.496;7.606;2024-03-25T05:19:34;104.05;;;28.17;;
25155;SDS011;71253;51.496;7.606;2024-03-25T05:24:35;104.68;;;26.77;;
25155;SDS011;71253;51.496;7.606;2024-03-25T05:29:35;110.28;;;29.08;;
25155;SDS011;71253;51.496;7.606;2024-03-25T05:34:36;123.82;;;27.40;;
25155;SDS011;71253;51.496;7.606;2024-03-25T05:39:36;119.13;;;29.33;;
25155;SDS011;71253;51.496;7.606;2024-03-25T05:44:37;136.05;;;30.10;;
25155;SDS011;71253;51.496;7.606;2024-03-25T05:49:38;114.85;;;29.85;;
25155;SDS011;71253;51.496;7.606;2024-03-25T05:54:38;136.27;;;30.38;;
25155;SDS011;71253;51.496;7.606;2024-03-25T05:59:39;125.65;;;29.70;;
25155;SDS011;71253;51.496;7.606;2024-03-25T06:04:40;119.05;;;26.90;;
25155;SDS011;71253;51.496;7.606;2024-03-25T06:09:40;86.32;;;22.90;;
25155;SDS011;71253;51.496;7.606;2024-03-25T06:14:41;91.63;;;21.20;;
25155;SDS011;71253;51.496;7.606;2024-03-25T06:19:41;97.55;;;19.67;;
25155;SDS011;71253;51.496;7.606;2024-03-25T06:24:42;79.57;;;18.98;;
25155;SDS011;71253;51.496;7.606;2024-03-25T06:29:43;73.88;;;19.00;;
25155;SDS011;71253;51.496;7.606;2024-03-25T06:34:44;84.30;;;17.73;;
25155;SDS011;71253;51.496;7.606;2024-03-25T06:39:44;82.75;;;16.25;;
25155;SDS011;71253;51.496;7.606;2024-03-25T06:44:45;74.15;;;16.38;;
25155;SDS011;71253;51.496;7.606;2024-03-25T06:49:45;73.70;;;14.00;;
25155;SDS011;71253;51.496;7.606;2024-03-25T06:54:46;56.25;;;12.75;;
25155;SDS011;71253;51.496;7.606;2024-03-25T06:59:46;55.65;;;12.43;;
25155;SDS011;71253;51.496;7.606;2024-03-25T07:04:47;66.70;;;12.13;;
25155;SDS011;71253;51.496;7.606;2024-03-25T07:09:48;60.78;;;12.05;;
25155;SDS011;71253;51.496;7.606;2024-03-25T07:14:48;57.92;;;11.82;;
25155;SDS011;71253;51.496;7.606;2024-03-25T07:19:50;55.92;;;11.55;;
25155;SDS011;71253;51.496;7.606;2024-03-25T07:24:50;46.85;;;10.55;;
25155;SDS011;71253;51.496;7.606;2024-03-25T07:29:51;46.80;;;10.05;;
25155;SDS011;71253;51.496;7.606;2024-03-25T07:34:52;48.35;;;9.35;;
25155;SDS011;71253;51.496;7.606;2024-03-25T07:39:52;55.80;;;8.82;;
25155;SDS011;71253;51.496;7.606;2024-03-25T07:44:53;49.55;;;8.63;;
25155;SDS011;71253;51.496;7.606;2024-03-25T07:49:53;42.90;;;8.05;;
25155;SDS011;71253;51.496;7.606;2024-03-25T07:54:54;42.83;;;7.85;;
25155;SDS011;71253;51.496;7.606;2024-03-25T07:59:55;41.92;;;8.60;;
25155;SDS011;71253;51.496;7.606;2024-03-25T08:04:56;43.25;;;7.85;;
25155;SDS011;71253;51.496;7.606;2024-03-25T08:09:57;45.05;;;8.52;;
25155;SDS011;71253;51.496;7.606;2024-03-25T08:14:57;46.65;;;7.72;;
25155;SDS011;71253;51.496;7.606;2024-03-25T08:19:58;43.55;;;8.60;;
25155;SDS011;71253;51.496;7.606;2024-03-25T08:24:58;53.15;;;8.18;;
25155;SDS011;71253;51.496;7.606;2024-03-25T08:29:59;30.55;;;6.07;;
25155;SDS011;71253;51.496;7.606;2024-03-25T08:35:00;34.58;;;7.63;;
25155;SDS011;71253;51.496;7.606;2024-03-25T08:40:01;30.02;;;5.45;;
25155;SDS011;71253;51.496;7.606;2024-03-25T08:45:02;25.33;;;5.53;;
25155;SDS011;71253;51.496;7.606;2024-03-25T08:50:03;26.90;;;4.95;;
25155;SDS011;71253;51.496;7.606;2024-03-25T08:55:04;24.30;;;4.57;;
25155;SDS011;71253;51.496;7.606;2024-03-25T09:00:05;22.17;;;4.72;;
25155;SDS011;71253;51.496;7.606;2024-03-25T09:05:06;19.75;;;3.95;;
25155;SDS011;71253;51.496;7.606;2024-03-25T09:10:07;22.83;;;3.97;;
25155;SDS011;71253;51.496;7.606;2024-03-25T09:15:08;16.92;;;3.67;;
25155;SDS011;71253;51.496;7.606;2024-03-25T09:20:09;21.25;;;3.88;;
25155;SDS011;71253;51.496;7.606;2024-03-25T09:25:10;33.85;;;4.25;;
25155;SDS011;71253;51.496;7.606;2024-03-25T09:30:10;21.52;;;3.03;;
25155;SDS011;71253;51.496;7.606;2024-03-25T09:35:11;11.63;;;2.33;;
25155;SDS011;71253;51.496;7.606;2024-03-25T09:40:12;9.35;;;2.45;;
25155;SDS011;71253;51.496;7.606;2024-03-25T09:45:15;19.35;;;3.33;;
25155;SDS011;71253;51.496;7.606;2024-03-25T09:50:17;21.95;;;3.30;;
25155;SDS011;71253;51.496;7.606;2024-03-25T09:55:18;18.52;;;3.15;;
25155;SDS011;71253;51.496;7.606;2024-03-25T10:00:18;23.13;;;3.17;;
25155;SDS011;71253;51.496;7.606;2024-03-25T10:05:20;19.23;;;3.50;;
25155;SDS011;71253;51.496;7.606;2024-03-25T10:10:20;23.30;;;3.67;;
25155;SDS011;71253;51.496;7.606;2024-03-25T10:15:21;29.60;;;4.03;;
25155;SDS011;71253;51.496;7.606;2024-03-25T10:20:22;20.30;;;3.38;;
25155;SDS011;71253;51.496;7.606;2024-03-25T10:25:23;21.08;;;3.67;;
25155;SDS011;71253;51.496;7.606;2024-03-25T10:30:27;26.83;;;3.63;;
25155;SDS011;71253;51.496;7.606;2024-03-25T10:35:33;18.88;;;3.50;;
25155;SDS011;71253;51.496;7.606;2024-03-25T10:40:35;21.17;;;3.55;;
25155;SDS011;71253;51.496;7.606;2024-03-25T10:45:38;18.77;;;3.60;;
25155;SDS011;71253;51.496;7.606;2024-03-25T10:50:42;29.02;;;4.10;;
25155;SDS011;71253;51.496;7.606;2024-03-25T10:55:48;21.00;;;3.40;;
25155;SDS011;71253;51.496;7.606;2024-03-25T11:00:52;20.67;;;3.70;;
25155;SDS011;71253;51.496;7.606;2024-03-25T11:05:53;23.50;;;3.67;;
25155;SDS011;71253;51.496;7.606;2024-03-25T11:10:54;17.58;;;3.05;;
25155;SDS011;71253;51.496;7.606;2024-03-25T11:15:55;23.63;;;2.80;;
25155;SDS011;71253;51.496;7.606;2024-03-25T11:21:00;15.20;;;3.17;;
25155;SDS011;71253;51.496;7.606;2024-03-25T11:26:04;20.38;;;3.28;;
25155;SDS011;71253;51.496;7.606;2024-03-25T11:31:05;17.25;;;3.22;;
25155;SDS011;71253;51.496;7.606;2024-03-25T11:36:05;19.55;;;2.63;;
25155;SDS011;71253;51.496;7.606;2024-03-25T11:41:07;14.25;;;2.70;;
25155;SDS011;71253;51.496;7.606;2024-03-25T11:46:07;11.52;;;2.50;;
25155;SDS011;71253;51.496;7.606;2024-03-25T11:51:10;17.42;;;2.70;;
25155;SDS011;71253;51.496;7.606;2024-03-25T11:56:12;12.57;;;1.98;;
25155;SDS011;71253;51.496;7.606;2024-03-25T12:01:14;14.18;;;2.42;;
25155;SDS011;71253;51.496;7.606;2024-03-25T12:06:17;13.75;;;2.40;;
25155;SDS011;71253;51.496;7.606;2024-03-25T12:11:18;14.88;;;2.60;;
25155;SDS011;71253;51.496;7.606;2024-03-25T12:16:18;14.40;;;2.60;;
25155;SDS011;71253;51.496;7.606;2024-03-25T12:21:19;15.20;;;2.80;;
25155;SDS011;71253;51.496;7.606;2024-03-25T12:26:20;21.25;;;2.30;;
25155;SDS011;71253;51.496;7.606;2024-03-25T12:31:23;12.95;;;2.53;;
25155;SDS011;71253;51.496;7.606;2024-03-25T12:36:24;11.57;;;2.03;;
25155;SDS011;71253;51.496;7.606;2024-03-25T12:41:24;11.80;;;2.50;;
25155;SDS011;71253;51.496;7.606;2024-03-25T12:46:25;13.80;;;2.17;;
25155;SDS011;71253;51.496;7.606;2024-03-25T12:51:26;15.90;;;2.70;;
25155;SDS011;71253;51.496;7.606;2024-03-25T12:56:26;14.35;;;2.60;;
25155;SDS011;71253;51.496;7.606;2024-03-25T13:01:27;18.42;;;2.70;;
25155;SDS011;71253;51.496;7.606;2024-03-25T13:06:27;15.95;;;2.67;;
25155;SDS011;71253;51.496;7.606;2024-03-25T13:11:28;14.40;;;2.78;;
25155;SDS011;71253;51.496;7.606;2024-03-25T13:16:29;14.73;;;2.80;;
25155;SDS011;71253;51.496;7.606;2024-03-25T13:21:29;13.05;;;2.05;;
25155;SDS011;71253;51.496;7.606;2024-03-25T13:26:30;15.02;;;2.70;;
25155;SDS011;71253;51.496;7.606;2024-03-25T13:31:31;10.30;;;2.08;;
25155;SDS011;71253;51.496;7.606;2024-03-25T13:36:31;15.48;;;2.40;;
25155;SDS011;71253;51.496;7.606;2024-03-25T13:41:32;18.00;;;2.35;;
25155;SDS011;71253;51.496;7.606;2024-03-25T13:46:32;10.40;;;2.20;;
25155;SDS011;71253;51.496;7.606;2024-03-25T13:51:33;10.95;;;1.98;;
25155;SDS011;71253;51.496;7.606;2024-03-25T13:56:34;9.55;;;1.95;;
25155;SDS011;71253;51.496;7.606;2024-03-25T14:01:34;14.95;;;2.25;;
25155;SDS011;71253;51.496;7.606;2024-03-25T14:06:35;12.65;;;2.40;;
25155;SDS011;71253;51.496;7.606;2024-03-25T14:11:36;10.38;;;1.75;;
25155;SDS011;71253;51.496;7.606;2024-03-25T14:16:36;14.10;;;2.28;;
25155;SDS011;71253;51.496;7.606;2024-03-25T14:21:37;8.13;;;1.83;;
25155;SDS011;71253;51.496;7.606;2024-03-25T14:26:38;11.00;;;1.73;;
25155;SDS011;71253;51.496;7.606;2024-03-25T14:31:38;8.13;;;2.05;;
25155;SDS011;71253;51.496;7.606;2024-03-25T14:36:39;6.85;;;1.73;;
25155;SDS011;71253;51.496;7.606;2024-03-25T14:41:40;10.40;;;1.95;;
25155;SDS011;71253;51.496;7.606;2024-03-25T14:46:41;14.65;;;2.17;;
25155;SDS011;71253;51.496;7.606;2024-03-25T14:51:41;12.50;;;2.47;;
25155;SDS011;71253;51.496;7.606;2024-03-25T14:56:42;13.43;;;1.90;;
25155;SDS011;71253;51.496;7.606;2024-03-25T15:01:43;13.20;;;2.13;;
25155;SDS011;71253;51.496;7.606;2024-03-25T15:06:43;15.07;;;2.05;;
25155;SDS011;71253;51.496;7.606;2024-03-25T15:11:44;11.55;;;2.30;;
25155;SDS011;71253;51.496;7.606;2024-03-25T15:16:44;13.10;;;2.60;;
25155;SDS011;71253;51.496;7.606;2024-03-25T15:21:46;14.65;;;2.75;;
25155;SDS011;71253;51.496;7.606;2024-03-25T15:26:46;25.63;;;2.75;;
25155;SDS011;71253;51.496;7.606;2024-03-25T15:31:47;11.88;;;2.08;;
25155;SDS011;71253;51.496;7.606;2024-03-25T15:36:47;10.75;;;2.28;;
25155;SDS011;71253;51.496;7.606;2024-03-25T15:41:48;8.40;;;1.80;;
25155;SDS011;71253;51.496;7.606;2024-03-25T15:46:49;9.68;;;1.95;;
25155;SDS011;71253;51.496;7.606;2024-03-25T15:51:49;13.60;;;1.98;;
25155;SDS011;71253;51.496;7.606;2024-03-25T15:56:50;11.00;;;2.20;;
25155;SDS011;71253;51.496;7.606;2024-03-25T16:01:50;19.63;;;2.38;;
25155;SDS011;71253;51.496;7.606;2024-03-25T16:06:51;32.83;;;3.35;;
25155;SDS011;71253;51.496;7.606;2024-03-25T16:11:51;13.90;;;2.35;;
25155;SDS011;71253;51.496;7.606;2024-03-25T16:16:52;12.02;;;2.38;;
25155;SDS011;71253;51.496;7.606;2024-03-25T16:21:53;11.13;;;2.00;;
25155;SDS011;71253;51.496;7.606;2024-03-25T16:26:53;12.40;;;2.40;;
25155;SDS011;71253;51.496;7.606;2024-03-25T16:31:54;17.15;;;3.17;;
25155;SDS011;71253;51.496;7.606;2024-03-25T16:36:54;43.08;;;19.98;;
25155;SDS011;71253;51.496;7.606;2024-03-25T16:41:55;19.83;;;4.40;;
25155;SDS011;71253;51.496;7.606;2024-03-25T16:46:56;13.88;;;2.78;;
25155;SDS011;71253;51.496;7.606;2024-03-25T16:51:56;19.83;;;3.30;;
25155;SDS011;71253;51.496;7.606;2024-03-25T16:56:57;24.60;;;3.42;;
25155;SDS011;71253;51.496;7.606;2024-03-25T17:01:58;16.90;;;2.70;;
25155;SDS011;71253;51.496;7.606;2024-03-25T17:06:58;15.27;;;2.75;;
25155;SDS011;71253;51.496;7.606;2024-03-25T17:11:59;16.92;;;2.63;;
25155;SDS011;71253;51.496;7.606;2024-03-25T17:17:00;23.02;;;3.20;;
25155;SDS011;71253;51.496;7.606;2024-03-25T17:22:00;13.95;;;2.75;;
25155;SDS011;71253;51.496;7.606;2024-03-25T17:27:01;19.77;;;4.20;;
25155;SDS011;71253;51.496;7.606;2024-03-25T17:32:02;33.63;;;8.35;;
25155;SDS011;71253;51.496;7.606;2024-03-25T17:37:03;19.02;;;3.58;;
25155;SDS011;71253;51.496;7.606;2024-03-25T17:42:03;20.35;;;3.22;;
25155;SDS011;71253;51.496;7.606;2024-03-25T17:47:04;17.42;;;3.45;;
25155;SDS011;71253;51.496;7.606;2024-03-25T17:52:05;12.73;;;3.55;;
25155;SDS011;71253;51.496;7.606;2024-03-25T17:57:06;16.92;;;3.53;;
25155;SDS011;71253;51.496;7.606;2024-03-25T18:02:06;20.17;;;3.55;;
25155;SDS011;71253;51.496;7.606;2024-03-25T18:07:07;21.58;;;3.80;;
25155;SDS011;71253;51.496;7.606;2024-03-25T18:12:07;25.80;;;3.80;;
25155;SDS011;71253;51.496;7.606;2024-03-25T18:17:08;16.80;;;4.28;;
25155;SDS011;71253;51.496;7.606;2024-03-25T18:22:09;29.83;;;4.55;;
25155;SDS011;71253;51.496;7.606;2024-03-25T18:27:09;29.80;;;4.40;;
25155;SDS011;71253;51.496;7.606;2024-03-25T18:32:10;20.63;;;3.95;;
25155;SDS011;71253;51.496;7.606;2024-03-25T18:37:11;34.00;;;4.63;;
25155;SDS011;71253;51.496;7.606;2024-03-25T18:42:12;22.05;;;4.55;;
25155;SDS011;71253;51.496;7.606;2024-03-25T18:47:12;25.90;;;5.38;;
25155;SDS011;71253;51.496;7.606;2024-03-25T18:52:13;20.77;;;4.05;;
25155;SDS011;71253;51.496;7.606;2024-03-25T18:57:13;19.88;;;4.72;;
25155;SDS011;71253;51.496;7.606;2024-03-25T19:02:14;20.73;;;4.75;;
25155;SDS011;71253;51.496;7.606;2024-03-25T19:07:15;27.00;;;4.07;;
25155;SDS011;71253;51.496;7.606;2024-03-25T19:12:16;23.73;;;4.57;;
25155;SDS011;71253;51.496;7.606;2024-03-25T19:17:16;17.65;;;3.58;;
25155;SDS011;71253;51.496;7.606;2024-03-25T19:22:17;15.25;;;3.03;;
25155;SDS011;71253;51.496;7.606;2024-03-25T19:27:18;21.30;;;3.88;;
25155;SDS011;71253;51.496;7.606;2024-03-25T19:32:19;27.05;;;3.78;;
25155;SDS011;71253;51.496;7.606;2024-03-25T19:37:21;17.90;;;4.00;;
25155;SDS011;71253;51.496;7.606;2024-03-25T19:42:21;13.82;;;3.35;;
25155;SDS011;71253;51.496;7.606;2024-03-25T19:47:22;18.60;;;3.53;;
25155;SDS011;71253;51.496;7.606;2024-03-25T19:52:24;17.15;;;3.67;;
25155;SDS011;71253;51.496;7.606;2024-03-25T19:57:24;16.33;;;3.78;;
25155;SDS011;71253;51.496;7.606;2024-03-25T20:02:26;15.48;;;3.70;;
25155;SDS011;71253;51.496;7.606;2024-03-25T20:07:27;20.10;;;3.72;;
25155;SDS011;71253;51.496;7.606;2024-03-25T20:12:27;17.98;;;4.07;;
25155;SDS011;71253;51.496;7.606;2024-03-25T20:17:28;14.98;;;3.78;;
25155;SDS011;71253;51.496;7.606;2024-03-25T20:22:29;16.75;;;4.07;;
25155;SDS011;71253;51.496;7.606;2024-03-25T20:27:29;23.92;;;4.80;;
25155;SDS011;71253;51.496;7.606;2024-03-25T20:32:30;19.92;;;4.80;;
25155;SDS011;71253;51.496;7.606;2024-03-25T20:37:31;23.13;;;4.88;;
25155;SDS011;71253;51.496;7.606;2024-03-25T20:42:31;26.45;;;5.20;;
25155;SDS011;71253;51.496;7.606;2024-03-25T20:47:32;21.38;;;6.78;;
25155;SDS011;71253;51.496;7.606;2024-03-25T20:52:32;22.70;;;5.05;;
25155;SDS011;71253;51.496;7.606;2024-03-25T20:57:33;20.48;;;5.00;;
25155;SDS011;71253;51.496;7.606;2024-03-25T21:02:34;20.48;;;6.07;;
25155;SDS011;71253;51.496;7.606;2024-03-25T21:07:34;21.58;;;5.63;;
25155;SDS011;71253;51.496;7.606;2024-03-25T21:12:35;19.50;;;5.10;;
25155;SDS011;71253;51.496;7.606;2024-03-25T21:17:36;19.98;;;5.13;;
25155;SDS011;71253;51.496;7.606;2024-03-25T21:22:36;15.00;;;4.50;;
25155;SDS011;71253;51.496;7.606;2024-03-25T21:27:37;15.95;;;4.30;;
25155;SDS011;71253;51.496;7.606;2024-03-25T21:32:37;19.55;;;4.13;;
25155;SDS011;71253;51.496;7.606;2024-03-25T21:37:38;16.42;;;3.80;;
25155;SDS011;71253;51.496;7.606;2024-03-25T21:42:39;12.90;;;3.67;;
25155;SDS011;71253;51.496;7.606;2024-03-25T21:47:39;12.93;;;3.80;;
25155;SDS011;71253;51.496;7.606;2024-03-25T21:52:40;18.13;;;4.15;;
25155;SDS011;71253;51.496;7.606;2024-03-25T21:57:41;17.27;;;3.40;;
25155;SDS011;71253;51.496;7.606;2024-03-25T22:02:41;17.52;;;3.63;;
25155;SDS011;71253;51.496;7.606;2024-03-25T22:07:42;13.43;;;3.28;;
25155;SDS011;71253;51.496;7.606;2024-03-25T22:12:42;12.73;;;2.85;;
25155;SDS011;71253;51.496;7.606;2024-03-25T22:17:43;12.80;;;2.70;;
25155;SDS011;71253;51.496;7.606;2024-03-25T22:22:47;13.98;;;3.75;;
25155;SDS011;71253;51.496;7.606;2024-03-25T22:27:51;17.92;;;4.18;;
25155;SDS011;71253;51.496;7.606;2024-03-25T22:32:52;21.40;;;3.90;;
25155;SDS011;71253;51.496;7.606;2024-03-25T22:37:53;17.17;;;3.95;;
25155;SDS011;71253;51.496;7.606;2024-03-25T22:42:53;14.02;;;3.78;;
25155;SDS011;71253;51.496;7.606;2024-03-25T22:47:54;14.60;;;3.72;;
25155;SDS011;71253;51.496;7.606;2024-03-25T22:52:54;12.30;;;3.67;;
25155;SDS011;71253;51.496;7.606;2024-03-25T22:57:55;13.90;;;3.90;;
25155;SDS011;71253;51.496;7.606;2024-03-25T23:02:55;19.05;;;4.20;;
25155;SDS011;71253;51.496;7.606;2024-03-25T23:07:56;16.85;;;3.63;;
25155;SDS011;71253;51.496;7.606;2024-03-25T23:12:57;18.35;;;4.10;;
25155;SDS011;71253;51.496;7.606;2024-03-25T23:17:57;16.48;;;3.88;;
25155;SDS011;71253;51.496;7.606;2024-03-25T23:22:58;15.85;;;3.88;;
25155;SDS011;71253;51.496;7.606;2024-03-25T23:27:58;13.38;;;3.85;;
25155;SDS011;71253;51.496;7.606;2024-03-25T23:32:59;10.50;;;3.37;;
25155;SDS011;71253;51.496;7.606;2024-03-25T23:38:00;19.60;;;3.70;;
25155;SDS011;71253;51.496;7.606;2024-03-25T23:43:01;17.38;;;3.28;;
25155;SDS011;71253;51.496;7.606;2024-03-25T23:48:02;15.77;;;3.38;;
25155;SDS011;71253;51.496;7.606;2024-03-25T23:53:03;12.10;;;3.33;;
25155;SDS011;71253;51.496;7.606;2024-03-25T23:58:04;16.95;;;3.42;;
